sensor_id;sensor_type;location;lat;lon;timestamp;P1;durP1;ratioP1;P2;durP2;ratioP2
11238;SDS011;5677;48.488;13.436;2022-12-18T00:01:57;8.63;;;5.97;;
11238;SDS011;5677;48.488;13.436;2022-12-18T00:04:25;9.67;;;6.73;;
11238;SDS011;5677;48.488;13.436;2022-12-18T00:06:54;7.87;;;5.50;;
11238;SDS011;5677;48.488;13.436;2022-12-18T00:09:21;8.47;;;5.53;;
11238;SDS011;5677;48.488;13.436;2022-12-18T00:11:47;8.20;;;5.40;;
11238;SDS011;5677;48.488;13.436;2022-12-18T00:14:14;8.10;;;6.00;;
11238;SDS011;5677;48.488;13.436;2022-12-18T00:16:43;9.13;;;6.10;;
11238;SDS011;5677;48.488;13.436;2022-12-18T00:19:10;8.10;;;5.97;;
11238;SDS011;5677;48.488;13.436;2022-12-18T00:21:38;7.53;;;5.80;;
11238;SDS011;5677;48.488;13.436;2022-12-18T00:24:06;7.53;;;5.10;;
11238;SDS011;5677;48.488;13.436;2022-12-18T00:26:34;8.43;;;5.80;;
11238;SDS011;5677;48.488;13.436;2022-12-18T00:29:02;9.80;;;6.30;;
11238;SDS011;5677;48.488;13.436;2022-12-18T00:31:31;6.83;;;5.23;;
11238;SDS011;5677;48.488;13.436;2022-12-18T00:33:58;8.10;;;5.73;;
11238;SDS011;5677;48.488;13.436;2022-12-18T00:36:26;6.93;;;5.43;;
11238;SDS011;5677;48.488;13.436;2022-12-18T00:38:55;8.73;;;5.93;;
11238;SDS011;5677;48.488;13.436;2022-12-18T00:41:25;8.80;;;6.13;;
11238;SDS011;5677;48.488;13.436;2022-12-18T00:44:10;8.50;;;5.93;;
11238;SDS011;5677;48.488;13.436;2022-12-18T00:46:39;8.80;;;6.17;;
11238;SDS011;5677;48.488;13.436;2022-12-18T00:49:06;8.50;;;5.80;;
11238;SDS011;5677;48.488;13.436;2022-12-18T00:51:33;8.47;;;6.27;;
11238;SDS011;5677;48.488;13.436;2022-12-18T00:54:00;7.77;;;5.60;;
11238;SDS011;5677;48.488;13.436;2022-12-18T00:56:28;7.50;;;5.40;;
11238;SDS011;5677;48.488;13.436;2022-12-18T00:58:55;7.07;;;5.47;;
11238;SDS011;5677;48.488;13.436;2022-12-18T01:01:21;7.03;;;5.43;;
11238;SDS011;5677;48.488;13.436;2022-12-18T01:03:48;9.10;;;6.60;;
11238;SDS011;5677;48.488;13.436;2022-12-18T01:06:16;8.37;;;6.47;;
11238;SDS011;5677;48.488;13.436;2022-12-18T01:08:43;8.63;;;6.20;;
11238;SDS011;5677;48.488;13.436;2022-12-18T01:11:10;7.77;;;5.63;;
11238;SDS011;5677;48.488;13.436;2022-12-18T01:13:39;7.57;;;5.77;;
11238;SDS011;5677;48.488;13.436;2022-12-18T01:16:07;6.87;;;5.67;;
11238;SDS011;5677;48.488;13.436;2022-12-18T01:18:34;8.20;;;5.70;;
11238;SDS011;5677;48.488;13.436;2022-12-18T01:21:02;9.73;;;5.90;;
11238;SDS011;5677;48.488;13.436;2022-12-18T01:23:32;6.73;;;4.90;;
11238;SDS011;5677;48.488;13.436;2022-12-18T01:26:03;7.17;;;5.30;;
11238;SDS011;5677;48.488;13.436;2022-12-18T01:28:31;8.40;;;5.97;;
11238;SDS011;5677;48.488;13.436;2022-12-18T01:31:09;7.43;;;5.57;;
11238;SDS011;5677;48.488;13.436;2022-12-18T01:33:38;8.33;;;5.87;;
11238;SDS011;5677;48.488;13.436;2022-12-18T01:36:04;8.10;;;5.87;;
11238;SDS011;5677;48.488;13.436;2022-12-18T01:38:32;7.40;;;5.60;;
11238;SDS011;5677;48.488;13.436;2022-12-18T01:40:59;8.53;;;5.90;;
11238;SDS011;5677;48.488;13.436;2022-12-18T01:43:40;8.93;;;5.70;;
11238;SDS011;5677;48.488;13.436;2022-12-18T01:46:13;9.60;;;6.17;;
11238;SDS011;5677;48.488;13.436;2022-12-18T01:48:40;9.87;;;5.33;;
11238;SDS011;5677;48.488;13.436;2022-12-18T01:51:08;7.77;;;5.87;;
11238;SDS011;5677;48.488;13.436;2022-12-18T01:53:36;8.83;;;5.93;;
11238;SDS011;5677;48.488;13.436;2022-12-18T01:56:05;7.30;;;5.40;;
11238;SDS011;5677;48.488;13.436;2022-12-18T01:58:33;7.80;;;5.43;;
11238;SDS011;5677;48.488;13.436;2022-12-18T02:01:05;7.67;;;5.60;;
11238;SDS011;5677;48.488;13.436;2022-12-18T02:03:33;8.47;;;5.80;;
11238;SDS011;5677;48.488;13.436;2022-12-18T02:06:00;8.53;;;5.93;;
11238;SDS011;5677;48.488;13.436;2022-12-18T02:08:38;7.93;;;5.83;;
11238;SDS011;5677;48.488;13.436;2022-12-18T02:11:10;7.90;;;6.13;;
11238;SDS011;5677;48.488;13.436;2022-12-18T02:13:45;8.37;;;5.80;;
11238;SDS011;5677;48.488;13.436;2022-12-18T02:16:19;8.93;;;5.90;;
11238;SDS011;5677;48.488;13.436;2022-12-18T02:18:54;8.53;;;6.37;;
11238;SDS011;5677;48.488;13.436;2022-12-18T02:21:27;6.53;;;5.27;;
11238;SDS011;5677;48.488;13.436;2022-12-18T02:24:03;9.97;;;5.73;;
11238;SDS011;5677;48.488;13.436;2022-12-18T02:26:43;9.13;;;6.00;;
11238;SDS011;5677;48.488;13.436;2022-12-18T02:29:15;7.27;;;5.40;;
11238;SDS011;5677;48.488;13.436;2022-12-18T02:31:48;8.30;;;5.87;;
11238;SDS011;5677;48.488;13.436;2022-12-18T02:34:18;7.97;;;5.63;;
11238;SDS011;5677;48.488;13.436;2022-12-18T02:36:47;9.00;;;6.00;;
11238;SDS011;5677;48.488;13.436;2022-12-18T02:39:15;8.07;;;5.67;;
11238;SDS011;5677;48.488;13.436;2022-12-18T02:41:45;8.37;;;5.50;;
11238;SDS011;5677;48.488;13.436;2022-12-18T02:44:13;7.93;;;6.03;;
11238;SDS011;5677;48.488;13.436;2022-12-18T02:46:40;8.40;;;5.70;;
11238;SDS011;5677;48.488;13.436;2022-12-18T02:49:12;8.30;;;5.80;;
11238;SDS011;5677;48.488;13.436;2022-12-18T02:51:50;8.67;;;6.20;;
11238;SDS011;5677;48.488;13.436;2022-12-18T02:54:24;7.50;;;5.77;;
11238;SDS011;5677;48.488;13.436;2022-12-18T02:57:13;8.57;;;6.03;;
11238;SDS011;5677;48.488;13.436;2022-12-18T02:59:46;9.07;;;5.77;;
11238;SDS011;5677;48.488;13.436;2022-12-18T03:02:21;7.67;;;5.43;;
11238;SDS011;5677;48.488;13.436;2022-12-18T03:04:54;7.87;;;5.80;;
11238;SDS011;5677;48.488;13.436;2022-12-18T03:07:27;7.57;;;5.37;;
11238;SDS011;5677;48.488;13.436;2022-12-18T03:10:03;7.80;;;6.03;;
11238;SDS011;5677;48.488;13.436;2022-12-18T03:12:34;8.63;;;5.80;;
11238;SDS011;5677;48.488;13.436;2022-12-18T03:15:04;9.03;;;6.70;;
11238;SDS011;5677;48.488;13.436;2022-12-18T03:17:34;8.27;;;5.87;;
11238;SDS011;5677;48.488;13.436;2022-12-18T03:20:05;8.63;;;6.13;;
11238;SDS011;5677;48.488;13.436;2022-12-18T03:22:37;7.20;;;5.43;;
11238;SDS011;5677;48.488;13.436;2022-12-18T03:25:07;7.73;;;5.83;;
11238;SDS011;5677;48.488;13.436;2022-12-18T03:27:38;7.83;;;5.97;;
11238;SDS011;5677;48.488;13.436;2022-12-18T03:30:11;9.13;;;6.30;;
11238;SDS011;5677;48.488;13.436;2022-12-18T03:32:41;7.73;;;5.80;;
11238;SDS011;5677;48.488;13.436;2022-12-18T03:35:13;7.97;;;5.73;;
11238;SDS011;5677;48.488;13.436;2022-12-18T03:37:43;10.93;;;6.37;;
11238;SDS011;5677;48.488;13.436;2022-12-18T03:40:10;9.70;;;5.90;;
11238;SDS011;5677;48.488;13.436;2022-12-18T03:42:41;7.80;;;5.27;;
11238;SDS011;5677;48.488;13.436;2022-12-18T03:45:13;10.57;;;6.50;;
11238;SDS011;5677;48.488;13.436;2022-12-18T03:47:48;8.77;;;5.70;;
11238;SDS011;5677;48.488;13.436;2022-12-18T03:50:27;9.27;;;6.20;;
11238;SDS011;5677;48.488;13.436;2022-12-18T03:53:09;8.23;;;6.10;;
11238;SDS011;5677;48.488;13.436;2022-12-18T03:55:44;10.10;;;5.30;;
11238;SDS011;5677;48.488;13.436;2022-12-18T03:58:15;7.60;;;5.57;;
11238;SDS011;5677;48.488;13.436;2022-12-18T04:00:45;8.50;;;5.77;;
11238;SDS011;5677;48.488;13.436;2022-12-18T04:03:14;10.50;;;6.07;;
11238;SDS011;5677;48.488;13.436;2022-12-18T04:05:42;7.63;;;5.53;;
11238;SDS011;5677;48.488;13.436;2022-12-18T04:08:10;7.63;;;5.50;;
11238;SDS011;5677;48.488;13.436;2022-12-18T04:10:36;7.50;;;5.50;;
11238;SDS011;5677;48.488;13.436;2022-12-18T04:13:03;8.80;;;5.77;;
11238;SDS011;5677;48.488;13.436;2022-12-18T04:15:32;7.87;;;5.43;;
11238;SDS011;5677;48.488;13.436;2022-12-18T04:18:01;10.13;;;5.73;;
11238;SDS011;5677;48.488;13.436;2022-12-18T04:20:28;7.23;;;5.30;;
11238;SDS011;5677;48.488;13.436;2022-12-18T04:22:55;11.80;;;6.93;;
11238;SDS011;5677;48.488;13.436;2022-12-18T04:25:22;8.13;;;5.77;;
11238;SDS011;5677;48.488;13.436;2022-12-18T04:27:48;9.80;;;6.00;;
11238;SDS011;5677;48.488;13.436;2022-12-18T04:30:15;16.17;;;10.10;;
11238;SDS011;5677;48.488;13.436;2022-12-18T04:32:43;11.03;;;7.70;;
11238;SDS011;5677;48.488;13.436;2022-12-18T04:35:10;12.53;;;7.67;;
11238;SDS011;5677;48.488;13.436;2022-12-18T04:37:37;15.40;;;8.20;;
11238;SDS011;5677;48.488;13.436;2022-12-18T04:40:04;13.47;;;8.07;;
11238;SDS011;5677;48.488;13.436;2022-12-18T04:42:31;14.13;;;8.40;;
11238;SDS011;5677;48.488;13.436;2022-12-18T04:44:58;12.57;;;8.00;;
11238;SDS011;5677;48.488;13.436;2022-12-18T04:47:25;12.97;;;7.93;;
11238;SDS011;5677;48.488;13.436;2022-12-18T04:49:53;13.73;;;8.43;;
11238;SDS011;5677;48.488;13.436;2022-12-18T04:52:20;14.63;;;8.07;;
11238;SDS011;5677;48.488;13.436;2022-12-18T04:54:47;11.20;;;7.43;;
11238;SDS011;5677;48.488;13.436;2022-12-18T04:57:13;12.97;;;8.33;;
11238;SDS011;5677;48.488;13.436;2022-12-18T04:59:40;11.10;;;7.10;;
11238;SDS011;5677;48.488;13.436;2022-12-18T05:02:07;14.43;;;9.27;;
11238;SDS011;5677;48.488;13.436;2022-12-18T05:04:34;11.97;;;8.70;;
11238;SDS011;5677;48.488;13.436;2022-12-18T05:07:02;13.27;;;8.53;;
11238;SDS011;5677;48.488;13.436;2022-12-18T05:09:29;13.00;;;7.87;;
11238;SDS011;5677;48.488;13.436;2022-12-18T05:11:55;13.20;;;8.23;;
11238;SDS011;5677;48.488;13.436;2022-12-18T05:14:22;12.57;;;8.40;;
11238;SDS011;5677;48.488;13.436;2022-12-18T05:16:49;11.80;;;7.57;;
11238;SDS011;5677;48.488;13.436;2022-12-18T05:19:16;13.20;;;7.63;;
11238;SDS011;5677;48.488;13.436;2022-12-18T05:21:43;11.97;;;7.90;;
11238;SDS011;5677;48.488;13.436;2022-12-18T05:24:11;12.57;;;7.37;;
11238;SDS011;5677;48.488;13.436;2022-12-18T05:26:37;10.53;;;6.87;;
11238;SDS011;5677;48.488;13.436;2022-12-18T05:29:04;11.00;;;7.17;;
11238;SDS011;5677;48.488;13.436;2022-12-18T05:31:31;12.80;;;8.57;;
11238;SDS011;5677;48.488;13.436;2022-12-18T05:33:58;11.83;;;8.10;;
11238;SDS011;5677;48.488;13.436;2022-12-18T05:36:24;12.37;;;7.93;;
11238;SDS011;5677;48.488;13.436;2022-12-18T05:38:51;9.83;;;6.97;;
11238;SDS011;5677;48.488;13.436;2022-12-18T05:41:19;10.67;;;7.47;;
11238;SDS011;5677;48.488;13.436;2022-12-18T05:43:46;11.63;;;7.10;;
11238;SDS011;5677;48.488;13.436;2022-12-18T05:46:14;12.43;;;8.20;;
11238;SDS011;5677;48.488;13.436;2022-12-18T05:48:42;12.30;;;7.53;;
11238;SDS011;5677;48.488;13.436;2022-12-18T05:51:11;10.67;;;7.30;;
11238;SDS011;5677;48.488;13.436;2022-12-18T05:53:40;12.43;;;7.60;;
11238;SDS011;5677;48.488;13.436;2022-12-18T05:56:08;10.37;;;6.70;;
11238;SDS011;5677;48.488;13.436;2022-12-18T05:58:38;9.40;;;6.87;;
11238;SDS011;5677;48.488;13.436;2022-12-18T06:01:06;11.50;;;7.13;;
11238;SDS011;5677;48.488;13.436;2022-12-18T06:03:34;14.97;;;8.60;;
11238;SDS011;5677;48.488;13.436;2022-12-18T06:06:01;11.83;;;7.17;;
11238;SDS011;5677;48.488;13.436;2022-12-18T06:08:28;11.20;;;7.77;;
11238;SDS011;5677;48.488;13.436;2022-12-18T06:10:55;11.93;;;7.60;;
11238;SDS011;5677;48.488;13.436;2022-12-18T06:13:22;10.53;;;7.00;;
11238;SDS011;5677;48.488;13.436;2022-12-18T06:15:50;12.63;;;7.87;;
11238;SDS011;5677;48.488;13.436;2022-12-18T06:18:17;9.60;;;6.93;;
11238;SDS011;5677;48.488;13.436;2022-12-18T06:20:44;11.27;;;7.10;;
11238;SDS011;5677;48.488;13.436;2022-12-18T06:23:11;10.47;;;7.03;;
11238;SDS011;5677;48.488;13.436;2022-12-18T06:25:38;13.50;;;8.37;;
11238;SDS011;5677;48.488;13.436;2022-12-18T06:28:05;16.37;;;9.27;;
11238;SDS011;5677;48.488;13.436;2022-12-18T06:30:32;14.77;;;9.47;;
11238;SDS011;5677;48.488;13.436;2022-12-18T06:33:00;14.63;;;8.47;;
11238;SDS011;5677;48.488;13.436;2022-12-18T06:35:27;15.03;;;9.40;;
11238;SDS011;5677;48.488;13.436;2022-12-18T06:37:54;13.70;;;8.57;;
11238;SDS011;5677;48.488;13.436;2022-12-18T06:40:20;11.90;;;8.37;;
11238;SDS011;5677;48.488;13.436;2022-12-18T06:42:47;14.30;;;8.83;;
11238;SDS011;5677;48.488;13.436;2022-12-18T06:45:14;15.53;;;9.17;;
11238;SDS011;5677;48.488;13.436;2022-12-18T06:47:41;12.90;;;8.27;;
11238;SDS011;5677;48.488;13.436;2022-12-18T06:50:09;12.43;;;8.53;;
11238;SDS011;5677;48.488;13.436;2022-12-18T06:52:36;13.47;;;8.10;;
11238;SDS011;5677;48.488;13.436;2022-12-18T06:55:04;12.03;;;8.07;;
11238;SDS011;5677;48.488;13.436;2022-12-18T06:57:31;12.17;;;7.53;;
11238;SDS011;5677;48.488;13.436;2022-12-18T06:59:58;13.63;;;8.17;;
11238;SDS011;5677;48.488;13.436;2022-12-18T07:02:26;12.27;;;7.73;;
11238;SDS011;5677;48.488;13.436;2022-12-18T07:04:52;13.40;;;8.00;;
11238;SDS011;5677;48.488;13.436;2022-12-18T07:07:20;11.50;;;7.60;;
11238;SDS011;5677;48.488;13.436;2022-12-18T07:09:48;10.80;;;7.13;;
11238;SDS011;5677;48.488;13.436;2022-12-18T07:12:15;9.43;;;6.50;;
11238;SDS011;5677;48.488;13.436;2022-12-18T07:14:42;10.00;;;6.43;;
11238;SDS011;5677;48.488;13.436;2022-12-18T07:17:09;9.70;;;6.90;;
11238;SDS011;5677;48.488;13.436;2022-12-18T07:19:36;10.67;;;6.50;;
11238;SDS011;5677;48.488;13.436;2022-12-18T07:22:03;9.53;;;6.60;;
11238;SDS011;5677;48.488;13.436;2022-12-18T07:24:31;10.30;;;6.00;;
11238;SDS011;5677;48.488;13.436;2022-12-18T07:26:58;10.03;;;6.27;;
11238;SDS011;5677;48.488;13.436;2022-12-18T07:29:25;8.90;;;6.07;;
11238;SDS011;5677;48.488;13.436;2022-12-18T07:31:52;8.37;;;5.60;;
11238;SDS011;5677;48.488;13.436;2022-12-18T07:34:19;8.53;;;5.77;;
11238;SDS011;5677;48.488;13.436;2022-12-18T07:36:45;8.80;;;5.40;;
11238;SDS011;5677;48.488;13.436;2022-12-18T07:39:12;8.80;;;5.00;;
11238;SDS011;5677;48.488;13.436;2022-12-18T07:41:41;8.20;;;5.63;;
11238;SDS011;5677;48.488;13.436;2022-12-18T07:44:10;8.17;;;5.40;;
11238;SDS011;5677;48.488;13.436;2022-12-18T07:46:37;8.13;;;5.30;;
11238;SDS011;5677;48.488;13.436;2022-12-18T07:49:04;12.23;;;5.47;;
11238;SDS011;5677;48.488;13.436;2022-12-18T07:51:31;8.27;;;5.50;;
11238;SDS011;5677;48.488;13.436;2022-12-18T07:53:58;7.10;;;5.80;;
11238;SDS011;5677;48.488;13.436;2022-12-18T07:56:25;7.97;;;5.90;;
11238;SDS011;5677;48.488;13.436;2022-12-18T07:58:53;7.67;;;5.73;;
11238;SDS011;5677;48.488;13.436;2022-12-18T08:01:20;8.47;;;5.70;;
11238;SDS011;5677;48.488;13.436;2022-12-18T08:03:47;9.73;;;5.80;;
11238;SDS011;5677;48.488;13.436;2022-12-18T08:06:14;8.23;;;6.00;;
11238;SDS011;5677;48.488;13.436;2022-12-18T08:08:40;8.67;;;5.93;;
11238;SDS011;5677;48.488;13.436;2022-12-18T08:11:07;8.70;;;5.53;;
11238;SDS011;5677;48.488;13.436;2022-12-18T08:13:34;8.10;;;6.00;;
11238;SDS011;5677;48.488;13.436;2022-12-18T08:16:03;21.60;;;12.33;;
11238;SDS011;5677;48.488;13.436;2022-12-18T08:18:31;16.97;;;11.17;;
11238;SDS011;5677;48.488;13.436;2022-12-18T08:21:06;10.97;;;7.17;;
11238;SDS011;5677;48.488;13.436;2022-12-18T08:23:34;12.60;;;8.20;;
11238;SDS011;5677;48.488;13.436;2022-12-18T08:26:01;13.47;;;9.67;;
11238;SDS011;5677;48.488;13.436;2022-12-18T08:28:28;12.03;;;8.10;;
11238;SDS011;5677;48.488;13.436;2022-12-18T08:30:55;14.03;;;9.43;;
11238;SDS011;5677;48.488;13.436;2022-12-18T08:33:23;13.43;;;8.77;;
11238;SDS011;5677;48.488;13.436;2022-12-18T08:35:50;14.90;;;9.47;;
11238;SDS011;5677;48.488;13.436;2022-12-18T08:38:18;16.13;;;9.23;;
11238;SDS011;5677;48.488;13.436;2022-12-18T08:40:45;13.03;;;8.60;;
11238;SDS011;5677;48.488;13.436;2022-12-18T08:43:12;13.43;;;8.70;;
11238;SDS011;5677;48.488;13.436;2022-12-18T08:45:56;18.23;;;10.10;;
11238;SDS011;5677;48.488;13.436;2022-12-18T08:48:24;14.70;;;9.37;;
11238;SDS011;5677;48.488;13.436;2022-12-18T08:50:54;17.10;;;9.43;;
11238;SDS011;5677;48.488;13.436;2022-12-18T08:53:21;17.77;;;10.53;;
11238;SDS011;5677;48.488;13.436;2022-12-18T08:55:49;17.30;;;9.37;;
11238;SDS011;5677;48.488;13.436;2022-12-18T08:58:16;22.87;;;9.70;;
11238;SDS011;5677;48.488;13.436;2022-12-18T09:00:42;18.20;;;9.53;;
11238;SDS011;5677;48.488;13.436;2022-12-18T09:03:10;19.03;;;8.57;;
11238;SDS011;5677;48.488;13.436;2022-12-18T09:05:39;15.13;;;8.83;;
11238;SDS011;5677;48.488;13.436;2022-12-18T09:08:06;14.50;;;8.70;;
11238;SDS011;5677;48.488;13.436;2022-12-18T09:10:33;14.47;;;8.83;;
11238;SDS011;5677;48.488;13.436;2022-12-18T09:13:00;12.67;;;7.90;;
11238;SDS011;5677;48.488;13.436;2022-12-18T09:15:27;14.37;;;8.37;;
11238;SDS011;5677;48.488;13.436;2022-12-18T09:17:54;13.73;;;8.40;;
11238;SDS011;5677;48.488;13.436;2022-12-18T09:20:20;14.40;;;7.60;;
11238;SDS011;5677;48.488;13.436;2022-12-18T09:22:49;10.80;;;7.03;;
11238;SDS011;5677;48.488;13.436;2022-12-18T09:25:15;20.27;;;12.20;;
11238;SDS011;5677;48.488;13.436;2022-12-18T09:27:42;13.60;;;8.80;;
11238;SDS011;5677;48.488;13.436;2022-12-18T09:30:09;11.40;;;7.90;;
11238;SDS011;5677;48.488;13.436;2022-12-18T09:32:36;14.20;;;7.40;;
11238;SDS011;5677;48.488;13.436;2022-12-18T09:35:04;13.97;;;8.13;;
11238;SDS011;5677;48.488;13.436;2022-12-18T09:37:31;12.37;;;7.43;;
11238;SDS011;5677;48.488;13.436;2022-12-18T09:39:59;11.13;;;7.30;;
11238;SDS011;5677;48.488;13.436;2022-12-18T09:42:26;15.27;;;8.67;;
11238;SDS011;5677;48.488;13.436;2022-12-18T09:44:53;10.37;;;7.57;;
11238;SDS011;5677;48.488;13.436;2022-12-18T09:47:21;13.23;;;8.53;;
11238;SDS011;5677;48.488;13.436;2022-12-18T09:49:52;15.17;;;8.90;;
11238;SDS011;5677;48.488;13.436;2022-12-18T09:52:23;14.80;;;8.40;;
11238;SDS011;5677;48.488;13.436;2022-12-18T09:54:54;12.47;;;8.63;;
11238;SDS011;5677;48.488;13.436;2022-12-18T09:57:26;13.03;;;8.60;;
11238;SDS011;5677;48.488;13.436;2022-12-18T09:59:54;15.03;;;8.73;;
11238;SDS011;5677;48.488;13.436;2022-12-18T10:02:25;11.83;;;8.10;;
11238;SDS011;5677;48.488;13.436;2022-12-18T10:05:02;12.33;;;7.90;;
11238;SDS011;5677;48.488;13.436;2022-12-18T10:07:33;12.23;;;7.53;;
11238;SDS011;5677;48.488;13.436;2022-12-18T10:10:13;11.77;;;7.63;;
11238;SDS011;5677;48.488;13.436;2022-12-18T10:12:50;10.47;;;7.60;;
11238;SDS011;5677;48.488;13.436;2022-12-18T10:15:23;11.40;;;7.57;;
11238;SDS011;5677;48.488;13.436;2022-12-18T10:17:58;11.57;;;7.57;;
11238;SDS011;5677;48.488;13.436;2022-12-18T10:20:34;12.80;;;7.77;;
11238;SDS011;5677;48.488;13.436;2022-12-18T10:23:08;12.90;;;7.07;;
11238;SDS011;5677;48.488;13.436;2022-12-18T10:25:45;10.23;;;7.13;;
11238;SDS011;5677;48.488;13.436;2022-12-18T10:28:19;11.80;;;7.67;;
11238;SDS011;5677;48.488;13.436;2022-12-18T10:30:46;11.13;;;6.63;;
11238;SDS011;5677;48.488;13.436;2022-12-18T10:33:13;9.07;;;6.57;;
11238;SDS011;5677;48.488;13.436;2022-12-18T10:35:44;13.00;;;7.03;;
11238;SDS011;5677;48.488;13.436;2022-12-18T10:38:25;11.33;;;7.03;;
11238;SDS011;5677;48.488;13.436;2022-12-18T10:40:54;10.13;;;6.77;;
11238;SDS011;5677;48.488;13.436;2022-12-18T10:43:24;9.73;;;7.00;;
11238;SDS011;5677;48.488;13.436;2022-12-18T10:45:59;7.73;;;5.80;;
11238;SDS011;5677;48.488;13.436;2022-12-18T10:48:29;10.03;;;6.43;;
11238;SDS011;5677;48.488;13.436;2022-12-18T10:50:57;12.80;;;6.83;;
11238;SDS011;5677;48.488;13.436;2022-12-18T10:53:26;11.80;;;7.40;;
11238;SDS011;5677;48.488;13.436;2022-12-18T10:55:55;16.70;;;10.27;;
11238;SDS011;5677;48.488;13.436;2022-12-18T10:58:26;28.20;;;12.83;;
11238;SDS011;5677;48.488;13.436;2022-12-18T11:01:02;20.20;;;11.43;;
11238;SDS011;5677;48.488;13.436;2022-12-18T11:03:31;25.10;;;13.43;;
11238;SDS011;5677;48.488;13.436;2022-12-18T11:06:04;20.40;;;12.30;;
11238;SDS011;5677;48.488;13.436;2022-12-18T11:08:33;19.43;;;11.57;;
11238;SDS011;5677;48.488;13.436;2022-12-18T11:11:00;22.73;;;12.47;;
11238;SDS011;5677;48.488;13.436;2022-12-18T11:13:29;22.60;;;12.27;;
11238;SDS011;5677;48.488;13.436;2022-12-18T11:15:57;22.27;;;11.80;;
11238;SDS011;5677;48.488;13.436;2022-12-18T11:18:25;20.40;;;11.10;;
11238;SDS011;5677;48.488;13.436;2022-12-18T11:20:54;17.63;;;11.17;;
11238;SDS011;5677;48.488;13.436;2022-12-18T11:23:23;18.53;;;11.03;;
11238;SDS011;5677;48.488;13.436;2022-12-18T11:25:51;17.47;;;10.93;;
11238;SDS011;5677;48.488;13.436;2022-12-18T11:28:38;17.70;;;11.40;;
11238;SDS011;5677;48.488;13.436;2022-12-18T11:31:21;19.53;;;10.63;;
11238;SDS011;5677;48.488;13.436;2022-12-18T11:33:51;19.77;;;10.83;;
11238;SDS011;5677;48.488;13.436;2022-12-18T11:36:24;19.30;;;10.67;;
11238;SDS011;5677;48.488;13.436;2022-12-18T11:38:56;17.60;;;10.90;;
11238;SDS011;5677;48.488;13.436;2022-12-18T11:41:29;20.23;;;13.27;;
11238;SDS011;5677;48.488;13.436;2022-12-18T11:44:17;16.43;;;8.60;;
11238;SDS011;5677;48.488;13.436;2022-12-18T11:46:51;10.97;;;7.27;;
11238;SDS011;5677;48.488;13.436;2022-12-18T11:49:24;16.67;;;9.97;;
11238;SDS011;5677;48.488;13.436;2022-12-18T11:51:55;17.47;;;9.53;;
11238;SDS011;5677;48.488;13.436;2022-12-18T11:54:27;24.30;;;13.73;;
11238;SDS011;5677;48.488;13.436;2022-12-18T11:56:55;20.07;;;11.23;;
11238;SDS011;5677;48.488;13.436;2022-12-18T11:59:32;20.37;;;10.20;;
11238;SDS011;5677;48.488;13.436;2022-12-18T12:02:09;29.47;;;11.50;;
11238;SDS011;5677;48.488;13.436;2022-12-18T12:04:47;21.10;;;10.93;;
11238;SDS011;5677;48.488;13.436;2022-12-18T12:07:28;19.03;;;10.83;;
11238;SDS011;5677;48.488;13.436;2022-12-18T12:10:08;18.77;;;10.47;;
11238;SDS011;5677;48.488;13.436;2022-12-18T12:15:46;18.23;;;9.97;;
11238;SDS011;5677;48.488;13.436;2022-12-18T12:18:25;17.27;;;9.30;;
11238;SDS011;5677;48.488;13.436;2022-12-18T12:21:02;20.87;;;9.30;;
11238;SDS011;5677;48.488;13.436;2022-12-18T12:23:36;16.17;;;9.33;;
11238;SDS011;5677;48.488;13.436;2022-12-18T12:26:09;14.40;;;8.77;;
11238;SDS011;5677;48.488;13.436;2022-12-18T12:28:52;14.07;;;8.73;;
11238;SDS011;5677;48.488;13.436;2022-12-18T12:31:50;16.40;;;8.70;;
11238;SDS011;5677;48.488;13.436;2022-12-18T12:34:29;14.23;;;9.13;;
11238;SDS011;5677;48.488;13.436;2022-12-18T12:37:04;13.87;;;8.47;;
11238;SDS011;5677;48.488;13.436;2022-12-18T12:39:43;17.23;;;8.50;;
11238;SDS011;5677;48.488;13.436;2022-12-18T12:42:20;13.30;;;8.10;;
11238;SDS011;5677;48.488;13.436;2022-12-18T12:45:14;15.73;;;8.57;;
11238;SDS011;5677;48.488;13.436;2022-12-18T12:47:45;13.00;;;7.93;;
11238;SDS011;5677;48.488;13.436;2022-12-18T12:50:16;11.17;;;7.13;;
11238;SDS011;5677;48.488;13.436;2022-12-18T12:52:46;12.97;;;8.20;;
11238;SDS011;5677;48.488;13.436;2022-12-18T12:55:16;13.23;;;8.00;;
11238;SDS011;5677;48.488;13.436;2022-12-18T12:57:47;13.30;;;7.47;;
11238;SDS011;5677;48.488;13.436;2022-12-18T13:00:20;14.87;;;7.47;;
11238;SDS011;5677;48.488;13.436;2022-12-18T13:02:51;11.37;;;7.93;;
11238;SDS011;5677;48.488;13.436;2022-12-18T13:05:25;11.50;;;6.80;;
11238;SDS011;5677;48.488;13.436;2022-12-18T13:07:59;13.63;;;7.80;;
11238;SDS011;5677;48.488;13.436;2022-12-18T13:10:33;11.30;;;7.07;;
11238;SDS011;5677;48.488;13.436;2022-12-18T13:13:01;12.40;;;7.50;;
11238;SDS011;5677;48.488;13.436;2022-12-18T13:15:30;11.30;;;7.07;;
11238;SDS011;5677;48.488;13.436;2022-12-18T13:18:18;12.63;;;6.97;;
11238;SDS011;5677;48.488;13.436;2022-12-18T13:20:46;13.60;;;6.43;;
11238;SDS011;5677;48.488;13.436;2022-12-18T13:28:59;11.63;;;6.63;;
11238;SDS011;5677;48.488;13.436;2022-12-18T13:34:36;12.77;;;6.83;;
11238;SDS011;5677;48.488;13.436;2022-12-18T13:43:27;13.63;;;6.57;;
11238;SDS011;5677;48.488;13.436;2022-12-18T13:46:04;9.67;;;6.00;;
11238;SDS011;5677;48.488;13.436;2022-12-18T13:48:49;10.67;;;6.90;;
11238;SDS011;5677;48.488;13.436;2022-12-18T13:51:29;8.10;;;5.97;;
11238;SDS011;5677;48.488;13.436;2022-12-18T13:53:59;9.40;;;6.30;;
11238;SDS011;5677;48.488;13.436;2022-12-18T13:56:28;10.97;;;5.67;;
11238;SDS011;5677;48.488;13.436;2022-12-18T13:59:11;8.80;;;5.50;;
11238;SDS011;5677;48.488;13.436;2022-12-18T14:01:43;9.37;;;5.73;;
11238;SDS011;5677;48.488;13.436;2022-12-18T14:04:17;8.97;;;5.67;;
11238;SDS011;5677;48.488;13.436;2022-12-18T14:06:52;11.07;;;6.33;;
11238;SDS011;5677;48.488;13.436;2022-12-18T14:09:23;10.97;;;5.83;;
11238;SDS011;5677;48.488;13.436;2022-12-18T14:11:52;10.90;;;5.80;;
11238;SDS011;5677;48.488;13.436;2022-12-18T14:14:41;9.33;;;5.50;;
11238;SDS011;5677;48.488;13.436;2022-12-18T14:17:10;6.70;;;5.53;;
11238;SDS011;5677;48.488;13.436;2022-12-18T14:19:40;8.73;;;5.60;;
11238;SDS011;5677;48.488;13.436;2022-12-18T14:22:13;6.67;;;5.10;;
11238;SDS011;5677;48.488;13.436;2022-12-18T14:24:42;7.80;;;5.33;;
11238;SDS011;5677;48.488;13.436;2022-12-18T14:27:17;7.23;;;5.10;;
11238;SDS011;5677;48.488;13.436;2022-12-18T14:29:47;9.30;;;5.83;;
11238;SDS011;5677;48.488;13.436;2022-12-18T14:32:14;8.33;;;4.97;;
11238;SDS011;5677;48.488;13.436;2022-12-18T14:34:43;6.73;;;5.00;;
11238;SDS011;5677;48.488;13.436;2022-12-18T14:37:11;11.00;;;6.47;;
11238;SDS011;5677;48.488;13.436;2022-12-18T14:39:51;14.30;;;5.90;;
11238;SDS011;5677;48.488;13.436;2022-12-18T14:42:19;9.90;;;5.63;;
11238;SDS011;5677;48.488;13.436;2022-12-18T14:44:46;10.50;;;6.00;;
11238;SDS011;5677;48.488;13.436;2022-12-18T14:47:13;14.43;;;5.57;;
11238;SDS011;5677;48.488;13.436;2022-12-18T14:49:42;15.57;;;5.50;;
11238;SDS011;5677;48.488;13.436;2022-12-18T14:52:17;11.40;;;5.10;;
11238;SDS011;5677;48.488;13.436;2022-12-18T14:54:49;10.47;;;6.27;;
11238;SDS011;5677;48.488;13.436;2022-12-18T14:57:20;11.07;;;5.60;;
11238;SDS011;5677;48.488;13.436;2022-12-18T14:59:48;12.43;;;6.23;;
11238;SDS011;5677;48.488;13.436;2022-12-18T15:02:18;13.27;;;6.70;;
11238;SDS011;5677;48.488;13.436;2022-12-18T15:04:59;11.93;;;6.13;;
11238;SDS011;5677;48.488;13.436;2022-12-18T15:07:38;11.80;;;6.27;;
11238;SDS011;5677;48.488;13.436;2022-12-18T15:10:09;11.03;;;6.70;;
11238;SDS011;5677;48.488;13.436;2022-12-18T15:12:39;15.03;;;6.50;;
11238;SDS011;5677;48.488;13.436;2022-12-18T15:18:10;10.87;;;6.17;;